createdAt,value
2017-12-03T09:45:10.522Z,1952.00
2017-12-03T09:46:10.601Z,1968.00
2017-12-03T09:47:10.535Z,1884.00
2017-12-03T09:48:10.775Z,1964.00
2017-12-03T09:49:10.395Z,1932.00
2017-12-03T09:50:10.327Z,1752.00
2017-12-03T09:51:10.302Z,1736.00
2017-12-03T09:52:10.278Z,1676.00
2017-12-03T09:53:10.307Z,1580.00
2017-12-03T09:54:10.239Z,1448.00
2017-12-03T09:55:10.201Z,1516.00
2017-12-03T09:56:10.191Z,1416.00
2017-12-03T09:57:10.154Z,1532.00
2017-12-03T09:58:10.167Z,1460.00
2017-12-03T09:59:10.105Z,1392.00
2017-12-03T10:00:10.085Z,1460.00
2017-12-03T10:01:10.065Z,1428.00
2017-12-03T10:02:20.661Z,1316.00
2017-12-03T10:03:10.060Z,1520.00
2017-12-03T10:04:09.993Z,1632.00
2017-12-03T10:05:09.961Z,1772.00
2017-12-03T10:06:09.939Z,1920.00
2017-12-03T10:07:09.907Z,1856.00
2017-12-03T10:08:09.944Z,1920.00
2017-12-03T10:09:09.857Z,1912.00
2017-12-03T10:10:10.859Z,2016.00
2017-12-03T10:11:09.831Z,2088.00
2017-12-03T10:12:10.373Z,2224.00
2017-12-03T10:13:10.064Z,2032.00
2017-12-03T10:14:10.072Z,2172.00
2017-12-03T10:15:10.582Z,2192.00
2017-12-03T10:16:09.838Z,2328.00
2017-12-03T10:17:11.305Z,2220.00
2017-12-03T10:18:10.583Z,2252.00
2017-12-03T10:19:09.706Z,2628.00
2017-12-03T10:20:09.769Z,2648.00
2017-12-03T10:21:10.583Z,2876.00
2017-12-03T10:22:10.546Z,2764.00
2017-12-03T10:23:10.085Z,2648.00
2017-12-03T10:33:03.234Z,3644.00
2017-12-03T10:34:03.386Z,3512.00
2017-12-03T10:35:03.182Z,3560.00
2017-12-03T10:36:03.904Z,3120.00
2017-12-03T10:37:03.168Z,3464.00
2017-12-03T10:38:03.127Z,3328.00
2017-12-03T10:39:03.904Z,3244.00
2017-12-03T10:40:03.043Z,3500.00
2017-12-03T10:41:03.231Z,3140.00
2017-12-03T10:42:03.109Z,3376.00
2017-12-03T10:43:03.167Z,3900.00
2017-12-03T10:44:03.009Z,3444.00
2017-12-03T10:45:02.949Z,3896.00
2017-12-03T10:46:02.872Z,3764.00
2017-12-03T10:47:02.861Z,4372.00
2017-12-03T10:48:02.826Z,3468.00
2017-12-03T10:49:02.834Z,3928.00
2017-12-03T10:50:02.777Z,3824.00
2017-12-03T10:51:02.748Z,3600.00
2017-12-03T10:52:02.726Z,3900.00
2017-12-03T10:53:12.518Z,3776.00
2017-12-03T10:54:11.112Z,3420.00
2017-12-03T10:55:02.655Z,3696.00
2017-12-03T10:56:02.627Z,3912.00
2017-12-03T10:57:02.601Z,3708.00
2017-12-03T10:58:02.576Z,3596.00
2017-12-03T10:59:02.553Z,3816.00
2017-12-03T11:00:02.568Z,4188.00
2017-12-03T11:01:02.506Z,4188.00
2017-12-03T11:02:02.502Z,3980.00
2017-12-03T11:03:02.455Z,3692.00
2017-12-03T11:04:02.473Z,4152.00
2017-12-03T11:05:02.406Z,4356.00
2017-12-03T11:06:02.385Z,3636.00
2017-12-03T11:07:02.355Z,3560.00
2017-12-03T11:08:02.334Z,3480.00
2017-12-03T11:09:02.353Z,3608.00
2017-12-03T11:10:02.283Z,3480.00
2017-12-03T11:11:02.263Z,3500.00
2017-12-03T11:12:02.236Z,3732.00
2017-12-03T11:13:02.215Z,3300.00
2017-12-03T11:14:02.227Z,3324.00
2017-12-03T11:15:02.169Z,3512.00
2017-12-03T11:16:02.173Z,3824.00
2017-12-03T11:17:02.119Z,3380.00
2017-12-03T11:18:02.091Z,3072.00
2017-12-03T11:19:02.073Z,3216.00
2017-12-03T11:20:02.064Z,3300.00
2017-12-03T11:21:02.056Z,3872.00
2017-12-03T11:22:01.992Z,3640.00
2017-12-03T11:23:01.966Z,3444.00
2017-12-03T11:24:01.995Z,3580.00
2017-12-03T11:25:01.922Z,3444.00
2017-12-03T11:26:02.144Z,3612.00
2017-12-03T11:27:02.165Z,3700.00
2017-12-03T11:28:02.043Z,3568.00
2017-12-03T11:29:01.899Z,3876.00
2017-12-03T11:30:01.915Z,3752.00
2017-12-03T11:31:02.052Z,3440.00
2017-12-03T11:32:01.881Z,3624.00
2017-12-03T11:33:01.758Z,3680.00
2017-12-03T11:34:01.739Z,3344.00
2017-12-03T11:35:01.673Z,3236.00
2017-12-03T11:36:01.675Z,3052.00
2017-12-03T11:37:01.627Z,2776.00
2017-12-03T11:38:01.600Z,2812.00
2017-12-03T11:39:01.581Z,3084.00
2017-12-03T11:40:01.553Z,3360.00
2017-12-03T11:41:01.552Z,3016.00
2017-12-03T11:42:01.503Z,2952.00
2017-12-03T11:43:01.478Z,3276.00
2017-12-03T11:44:11.087Z,3760.00
2017-12-03T11:45:11.123Z,3288.00
2017-12-03T11:46:01.457Z,3980.00
2017-12-03T11:47:01.707Z,3848.00
2017-12-03T11:48:01.358Z,4536.00
2017-12-03T11:49:01.333Z,3760.00
2017-12-03T11:50:01.306Z,3924.00
2017-12-03T11:51:01.329Z,4036.00
2017-12-03T11:52:01.259Z,3492.00
2017-12-03T11:53:01.235Z,3676.00
2017-12-03T11:54:01.208Z,3112.00
2017-12-03T11:55:01.188Z,2928.00
2017-12-03T11:56:01.300Z,2844.00
2017-12-03T11:57:01.136Z,3064.00
2017-12-03T11:58:01.112Z,2700.00
2017-12-03T11:59:01.083Z,2756.00
2017-12-03T12:00:01.067Z,2668.00
2017-12-03T12:01:01.081Z,2864.00
2017-12-03T12:02:01.009Z,2904.00
2017-12-03T12:03:00.990Z,2668.00
2017-12-03T12:04:00.963Z,2920.00
2017-12-03T12:05:00.937Z,2908.00
2017-12-03T12:06:00.949Z,2480.00
2017-12-03T12:07:00.903Z,2308.00
2017-12-03T12:08:00.865Z,2348.00
2017-12-03T12:09:00.838Z,2352.00
2017-12-03T12:10:00.816Z,2352.00
2017-12-03T12:11:00.843Z,2808.00
2017-12-03T12:12:00.770Z,2812.00
2017-12-03T12:13:00.741Z,2924.00
2017-12-03T12:14:00.717Z,3252.00
2017-12-03T12:15:00.695Z,3064.00
2017-12-03T12:16:00.742Z,3236.00
2017-12-03T12:17:00.646Z,3024.00
2017-12-03T12:18:00.625Z,2928.00
2017-12-03T12:19:00.595Z,2700.00
2017-12-03T12:20:00.571Z,2812.00
2017-12-03T12:21:00.581Z,2728.00
2017-12-03T12:22:00.529Z,2732.00
2017-12-03T12:23:00.547Z,2748.00
2017-12-03T12:24:00.473Z,2604.00
2017-12-03T12:25:00.447Z,2392.00
2017-12-03T12:26:00.424Z,2480.00
2017-12-03T12:27:00.399Z,2392.00
2017-12-03T12:28:00.414Z,2656.00
2017-12-03T12:29:00.348Z,2560.00
2017-12-03T12:30:00.327Z,2524.00
2017-12-03T12:31:00.347Z,2732.00
2017-12-03T12:32:00.276Z,2296.00
2017-12-03T12:33:00.251Z,2332.00
2017-12-03T12:34:00.229Z,2088.00
2017-12-03T12:35:10.171Z,2112.00
2017-12-03T12:36:00.227Z,1968.00
2017-12-03T12:37:00.159Z,2132.00
2017-12-03T12:38:00.132Z,1864.00
2017-12-03T12:39:00.152Z,2164.00
2017-12-03T12:40:00.082Z,2128.00
2017-12-03T12:41:00.055Z,2220.00
2017-12-03T12:42:00.033Z,2464.00
2017-12-03T12:43:00.015Z,2720.00
2017-12-03T12:44:00.029Z,2932.00
2017-12-03T12:45:00.088Z,2900.00
2017-12-03T12:45:59.936Z,2688.00
2017-12-03T12:46:59.914Z,2720.00
2017-12-03T12:47:59.889Z,2380.00
2017-12-03T12:48:59.862Z,2704.00
2017-12-03T12:49:59.884Z,2808.00
2017-12-03T12:50:59.811Z,3232.00
2017-12-03T12:51:59.791Z,3356.00
2017-12-03T12:52:59.764Z,3196.00
2017-12-03T12:53:59.739Z,2888.00
2017-12-03T12:54:59.747Z,2452.00
2017-12-03T12:55:59.688Z,2632.00
2017-12-03T12:56:59.709Z,2184.00
2017-12-03T12:57:59.642Z,2256.00
2017-12-03T12:58:59.619Z,2476.00
2017-12-03T12:59:59.594Z,2100.00
2017-12-03T13:00:59.572Z,2408.00
2017-12-03T13:01:59.581Z,2492.00
2017-12-03T13:02:59.519Z,2576.00
2017-12-03T13:03:59.537Z,2108.00
2017-12-03T13:04:59.469Z,2508.00
2017-12-03T13:05:59.445Z,2092.00
2017-12-03T13:06:59.419Z,2652.00
2017-12-03T13:07:59.402Z,2440.00
2017-12-03T13:08:59.411Z,2488.00
2017-12-03T13:09:59.351Z,2504.00
2017-12-03T13:10:59.324Z,2752.00
2017-12-03T13:11:59.304Z,2816.00
2017-12-03T13:12:59.275Z,2744.00
2017-12-03T13:13:59.302Z,2604.00
2017-12-03T13:14:59.250Z,2936.00
2017-12-03T13:15:59.200Z,2260.00
2017-12-03T13:16:59.180Z,2288.00
2017-12-03T13:17:59.152Z,2216.00
2017-12-03T13:18:59.180Z,2208.00
2017-12-03T13:19:59.108Z,2328.00
2017-12-03T13:20:59.078Z,2392.00
2017-12-03T13:21:59.057Z,2164.00
2017-12-03T13:22:59.042Z,2212.00
2017-12-03T13:23:59.051Z,2872.00
2017-12-03T13:24:59.024Z,2512.00
2017-12-03T13:25:58.958Z,2396.00
2017-12-03T13:26:58.932Z,2168.00
2017-12-03T13:27:58.909Z,2444.00
2017-12-03T13:28:58.886Z,2132.00
2017-12-03T13:29:58.913Z,1948.00
2017-12-03T13:30:58.840Z,1980.00
2017-12-03T13:31:58.814Z,1908.00
2017-12-03T13:33:08.702Z,1832.00
2017-12-03T13:33:58.762Z,1888.00
2017-12-03T13:34:58.766Z,1548.00
2017-12-03T13:35:58.773Z,1580.00
2017-12-03T13:36:58.718Z,1712.00
2017-12-03T13:37:58.674Z,1780.00
2017-12-03T13:38:58.638Z,1808.00
2017-12-03T13:39:58.626Z,1984.00
2017-12-03T13:40:58.624Z,1772.00
2017-12-03T13:41:58.576Z,1500.00
2017-12-03T13:42:58.541Z,1552.00
2017-12-03T13:43:58.521Z,1468.00
2017-12-03T13:44:58.509Z,1396.00
2017-12-03T13:45:58.511Z,1340.00
2017-12-03T13:46:58.446Z,1296.00
2017-12-03T13:47:58.422Z,1260.00
2017-12-03T13:48:58.399Z,992.00
2017-12-03T13:49:58.375Z,1044.00
2017-12-03T13:50:58.384Z,956.00
2017-12-03T13:51:58.332Z,1024.00
2017-12-03T13:52:58.303Z,952.00
2017-12-03T13:53:58.280Z,1024.00
2017-12-03T13:54:58.289Z,1032.00
2017-12-03T13:55:58.226Z,1196.00
2017-12-03T13:56:58.199Z,1084.00
2017-12-03T13:57:58.213Z,1036.00
2017-12-03T13:58:58.152Z,1028.00
2017-12-03T13:59:58.127Z,1012.00
2017-12-03T14:00:58.165Z,1012.00
2017-12-03T14:01:58.078Z,984.00
2017-12-03T14:02:58.057Z,1012.00
2017-12-03T14:03:58.030Z,876.00
2017-12-03T14:04:58.005Z,824.00
2017-12-03T14:05:58.016Z,704.00
2017-12-03T14:06:57.955Z,624.00
2017-12-03T14:07:57.931Z,660.00
2017-12-03T14:08:57.906Z,616.00
2017-12-03T14:09:57.889Z,572.00
2017-12-03T14:10:57.895Z,644.00
2017-12-03T14:11:57.839Z,612.00
2017-12-03T14:12:57.845Z,660.00
2017-12-03T14:13:57.790Z,684.00
2017-12-03T14:14:57.766Z,664.00
2017-12-03T14:15:57.743Z,748.00
2017-12-03T14:16:57.754Z,688.00
2017-12-03T14:17:57.698Z,744.00
2017-12-03T14:18:57.669Z,852.00
2017-12-03T14:19:57.641Z,836.00
2017-12-03T14:20:57.615Z,744.00
2017-12-03T14:21:57.633Z,724.00
2017-12-03T14:22:57.568Z,728.00
2017-12-03T14:24:07.239Z,740.00
2017-12-03T14:24:57.554Z,744.00
2017-12-03T14:25:57.496Z,736.00
2017-12-03T14:26:57.470Z,792.00
2017-12-03T14:27:57.444Z,812.00
2017-12-03T14:28:57.424Z,792.00
2017-12-03T14:29:57.432Z,796.00
2017-12-03T14:30:57.370Z,760.00
2017-12-03T14:31:57.356Z,596.00
2017-12-03T14:32:57.322Z,584.00
2017-12-03T14:33:57.345Z,516.00
2017-12-03T14:34:57.276Z,408.00
2017-12-03T14:35:57.249Z,388.00
2017-12-03T14:36:57.227Z,356.00
2017-12-03T14:37:57.203Z,384.00
2017-12-03T14:38:57.223Z,392.00
2017-12-03T14:39:57.156Z,424.00
2017-12-03T14:40:57.130Z,448.00
2017-12-03T14:41:57.107Z,444.00
2017-12-03T14:42:57.081Z,416.00
2017-12-03T14:43:57.107Z,380.00
2017-12-03T14:44:57.065Z,316.00
2017-12-03T14:45:57.014Z,296.00
2017-12-03T14:46:57.008Z,272.00
2017-12-03T14:48:00.166Z,300.00
2017-12-03T14:48:57.876Z,312.00
2017-12-03T14:49:59.673Z,288.00
2017-12-03T14:50:57.923Z,264.00
2017-12-03T14:52:03.168Z,260.00
2017-12-03T14:52:59.688Z,284.00
2017-12-03T14:54:00.725Z,264.00
2017-12-03T14:55:14.167Z,260.00
2017-12-03T14:55:56.815Z,260.00
2017-12-03T14:56:58.667Z,236.00
2017-12-03T14:57:57.776Z,232.00
2017-12-03T14:58:56.964Z,236.00
2017-12-03T14:59:58.176Z,220.00
2017-12-03T15:01:01.049Z,212.00
2017-12-03T15:02:14.088Z,204.00
2017-12-03T15:03:35.737Z,196.00
2017-12-03T15:03:59.725Z,180.00
2017-12-03T15:04:59.470Z,188.00
2017-12-03T15:05:57.941Z,172.00
2017-12-03T15:06:56.529Z,168.00
2017-12-03T15:07:59.170Z,164.00
2017-12-03T15:08:56.456Z,172.00
2017-12-03T15:09:57.245Z,176.00
2017-12-03T15:10:56.461Z,168.00
2017-12-03T15:11:56.427Z,176.00
2017-12-03T15:12:56.365Z,172.00
2017-12-03T15:13:56.337Z,152.00
2017-12-03T15:15:06.273Z,152.00
2017-12-03T15:15:57.331Z,128.00
2017-12-03T15:16:56.295Z,108.00
2017-12-03T15:17:56.231Z,108.00
2017-12-03T15:18:56.201Z,96.00
2017-12-03T15:19:56.178Z,92.00
2017-12-03T15:20:56.170Z,92.00
2017-12-03T15:21:56.262Z,80.00
2017-12-03T15:22:56.265Z,76.00
2017-12-03T15:23:57.202Z,76.00
2017-12-03T15:24:59.703Z,68.00
